sensor_id;sensor_type;location;lat;lon;timestamp;temperature;humidity
7341;DHT22;6870;50.944;6.932;2023-11-21T00:01:05;19.50;47.50
7341;DHT22;6870;50.944;6.932;2023-11-21T00:03:35;19.60;48.10
7341;DHT22;6870;50.944;6.932;2023-11-21T00:06:04;19.60;48.10
7341;DHT22;6870;50.944;6.932;2023-11-21T00:08:35;19.40;47.90
7341;DHT22;6870;50.944;6.932;2023-11-21T00:11:03;19.80;48.30
7341;DHT22;6870;50.944;6.932;2023-11-21T00:13:32;19.50;47.60
7341;DHT22;6870;50.944;6.932;2023-11-21T00:16:01;19.50;48.00
7341;DHT22;6870;50.944;6.932;2023-11-21T00:18:32;19.50;47.60
7341;DHT22;6870;50.944;6.932;2023-11-21T00:21:00;19.60;48.00
7341;DHT22;6870;50.944;6.932;2023-11-21T00:23:28;19.50;47.50
7341;DHT22;6870;50.944;6.932;2023-11-21T00:25:56;19.60;48.10
7341;DHT22;6870;50.944;6.932;2023-11-21T00:28:25;19.60;48.10
7341;DHT22;6870;50.944;6.932;2023-11-21T00:30:53;19.60;48.10
7341;DHT22;6870;50.944;6.932;2023-11-21T00:33:21;19.50;48.00
7341;DHT22;6870;50.944;6.932;2023-11-21T00:35:51;19.50;48.00
7341;DHT22;6870;50.944;6.932;2023-11-21T00:38:19;19.40;47.90
7341;DHT22;6870;50.944;6.932;2023-11-21T00:40:47;19.50;48.00
7341;DHT22;6870;50.944;6.932;2023-11-21T00:43:15;19.60;47.80
7341;DHT22;6870;50.944;6.932;2023-11-21T00:45:43;19.50;48.00
7341;DHT22;6870;50.944;6.932;2023-11-21T00:48:11;19.30;47.00
7341;DHT22;6870;50.944;6.932;2023-11-21T00:50:40;19.60;48.00
7341;DHT22;6870;50.944;6.932;2023-11-21T00:53:09;19.10;47.60
7341;DHT22;6870;50.944;6.932;2023-11-21T00:55:38;19.60;48.00
7341;DHT22;6870;50.944;6.932;2023-11-21T00:58:06;19.50;47.90
7341;DHT22;6870;50.944;6.932;2023-11-21T01:00:34;19.40;47.90
7341;DHT22;6870;50.944;6.932;2023-11-21T01:03:06;19.40;47.40
7341;DHT22;6870;50.944;6.932;2023-11-21T01:05:35;19.60;48.00
7341;DHT22;6870;50.944;6.932;2023-11-21T01:08:03;19.60;48.00
7341;DHT22;6870;50.944;6.932;2023-11-21T01:10:33;19.50;47.90
7341;DHT22;6870;50.944;6.932;2023-11-21T01:13:01;19.30;47.60
7341;DHT22;6870;50.944;6.932;2023-11-21T01:15:30;19.60;48.00
7341;DHT22;6870;50.944;6.932;2023-11-21T01:17:59;19.40;47.60
7341;DHT22;6870;50.944;6.932;2023-11-21T01:20:27;19.20;47.20
7341;DHT22;6870;50.944;6.932;2023-11-21T01:22:55;19.60;47.00
7341;DHT22;6870;50.944;6.932;2023-11-21T01:25:23;19.60;47.90
7341;DHT22;6870;50.944;6.932;2023-11-21T01:27:52;19.50;47.90
7341;DHT22;6870;50.944;6.932;2023-11-21T01:30:20;19.60;48.00
7341;DHT22;6870;50.944;6.932;2023-11-21T01:32:48;19.20;47.60
7341;DHT22;6870;50.944;6.932;2023-11-21T01:35:17;19.40;47.10
7341;DHT22;6870;50.944;6.932;2023-11-21T01:37:45;19.70;47.60
7341;DHT22;6870;50.944;6.932;2023-11-21T01:40:15;19.40;47.80
7341;DHT22;6870;50.944;6.932;2023-11-21T01:42:43;19.30;47.60
7341;DHT22;6870;50.944;6.932;2023-11-21T01:45:15;19.30;47.60
7341;DHT22;6870;50.944;6.932;2023-11-21T01:47:44;19.10;47.40
7341;DHT22;6870;50.944;6.932;2023-11-21T01:50:15;19.30;47.60
7341;DHT22;6870;50.944;6.932;2023-11-21T01:52:47;19.40;47.80
7341;DHT22;6870;50.944;6.932;2023-11-21T01:55:17;19.30;47.80
7341;DHT22;6870;50.944;6.932;2023-11-21T01:57:55;19.40;47.90
7341;DHT22;6870;50.944;6.932;2023-11-21T02:00:25;19.40;47.90
7341;DHT22;6870;50.944;6.932;2023-11-21T02:02:55;19.10;46.90
7341;DHT22;6870;50.944;6.932;2023-11-21T02:05:23;19.40;48.00
7341;DHT22;6870;50.944;6.932;2023-11-21T02:07:52;19.20;47.70
7341;DHT22;6870;50.944;6.932;2023-11-21T02:10:20;19.20;47.80
7341;DHT22;6870;50.944;6.932;2023-11-21T02:12:50;19.50;48.10
7341;DHT22;6870;50.944;6.932;2023-11-21T02:15:18;19.20;47.90
7341;DHT22;6870;50.944;6.932;2023-11-21T02:17:49;19.40;48.10
7341;DHT22;6870;50.944;6.932;2023-11-21T02:20:21;19.50;48.30
7341;DHT22;6870;50.944;6.932;2023-11-21T02:22:53;19.20;48.00
7341;DHT22;6870;50.944;6.932;2023-11-21T02:25:25;19.20;47.50
7341;DHT22;6870;50.944;6.932;2023-11-21T02:27:54;19.10;48.00
7341;DHT22;6870;50.944;6.932;2023-11-21T02:30:23;19.20;48.20
7341;DHT22;6870;50.944;6.932;2023-11-21T02:32:52;19.30;48.20
7341;DHT22;6870;50.944;6.932;2023-11-21T02:35:20;18.90;47.60
7341;DHT22;6870;50.944;6.932;2023-11-21T02:37:49;19.40;48.40
7341;DHT22;6870;50.944;6.932;2023-11-21T02:40:19;19.50;48.50
7341;DHT22;6870;50.944;6.932;2023-11-21T02:42:48;19.20;47.90
7341;DHT22;6870;50.944;6.932;2023-11-21T02:45:18;19.30;47.80
7341;DHT22;6870;50.944;6.932;2023-11-21T02:47:48;19.10;48.20
7341;DHT22;6870;50.944;6.932;2023-11-21T02:50:17;19.10;48.10
7341;DHT22;6870;50.944;6.932;2023-11-21T02:52:46;19.50;48.50
7341;DHT22;6870;50.944;6.932;2023-11-21T02:55:15;19.30;48.40
7341;DHT22;6870;50.944;6.932;2023-11-21T02:57:44;19.40;48.20
7341;DHT22;6870;50.944;6.932;2023-11-21T03:00:13;19.10;47.90
7341;DHT22;6870;50.944;6.932;2023-11-21T03:02:42;19.30;48.20
7341;DHT22;6870;50.944;6.932;2023-11-21T03:05:11;19.40;48.50
7341;DHT22;6870;50.944;6.932;2023-11-21T03:07:39;19.20;47.80
7341;DHT22;6870;50.944;6.932;2023-11-21T03:10:08;19.10;48.20
7341;DHT22;6870;50.944;6.932;2023-11-21T03:12:37;19.20;48.30
7341;DHT22;6870;50.944;6.932;2023-11-21T03:15:08;19.20;48.30
7341;DHT22;6870;50.944;6.932;2023-11-21T03:17:36;19.10;48.20
7341;DHT22;6870;50.944;6.932;2023-11-21T03:20:05;19.10;47.60
7341;DHT22;6870;50.944;6.932;2023-11-21T03:22:37;19.20;48.30
7341;DHT22;6870;50.944;6.932;2023-11-21T03:25:06;19.20;48.10
7341;DHT22;6870;50.944;6.932;2023-11-21T03:27:37;19.50;48.60
7341;DHT22;6870;50.944;6.932;2023-11-21T03:30:09;19.30;48.00
7341;DHT22;6870;50.944;6.932;2023-11-21T03:32:38;19.00;48.20
7341;DHT22;6870;50.944;6.932;2023-11-21T03:35:07;19.50;48.70
7341;DHT22;6870;50.944;6.932;2023-11-21T03:37:35;18.90;48.10
7341;DHT22;6870;50.944;6.932;2023-11-21T03:40:06;19.10;48.30
7341;DHT22;6870;50.944;6.932;2023-11-21T03:42:36;19.20;48.40
7341;DHT22;6870;50.944;6.932;2023-11-21T03:45:04;18.90;48.20
7341;DHT22;6870;50.944;6.932;2023-11-21T03:47:35;19.10;48.30
7341;DHT22;6870;50.944;6.932;2023-11-21T03:50:03;19.10;48.20
7341;DHT22;6870;50.944;6.932;2023-11-21T03:52:32;18.90;47.60
7341;DHT22;6870;50.944;6.932;2023-11-21T03:55:00;19.20;48.20
7341;DHT22;6870;50.944;6.932;2023-11-21T03:57:29;19.00;48.10
7341;DHT22;6870;50.944;6.932;2023-11-21T03:59:57;19.10;48.40
7341;DHT22;6870;50.944;6.932;2023-11-21T04:02:25;19.10;48.50
7341;DHT22;6870;50.944;6.932;2023-11-21T04:04:56;19.10;48.20
7341;DHT22;6870;50.944;6.932;2023-11-21T04:07:24;19.30;48.60
7341;DHT22;6870;50.944;6.932;2023-11-21T04:09:52;19.20;48.20
7341;DHT22;6870;50.944;6.932;2023-11-21T04:12:21;18.90;48.20
7341;DHT22;6870;50.944;6.932;2023-11-21T04:14:49;19.10;48.50
7341;DHT22;6870;50.944;6.932;2023-11-21T04:17:21;19.30;48.60
7341;DHT22;6870;50.944;6.932;2023-11-21T04:19:49;18.90;48.00
7341;DHT22;6870;50.944;6.932;2023-11-21T04:22:18;19.20;48.60
7341;DHT22;6870;50.944;6.932;2023-11-21T04:24:46;19.10;48.50
7341;DHT22;6870;50.944;6.932;2023-11-21T04:27:15;19.20;48.30
7341;DHT22;6870;50.944;6.932;2023-11-21T04:29:44;19.10;48.40
7341;DHT22;6870;50.944;6.932;2023-11-21T04:32:12;19.30;48.70
7341;DHT22;6870;50.944;6.932;2023-11-21T04:34:40;19.20;48.20
7341;DHT22;6870;50.944;6.932;2023-11-21T04:37:08;19.00;48.10
7341;DHT22;6870;50.944;6.932;2023-11-21T04:39:38;19.00;48.40
7341;DHT22;6870;50.944;6.932;2023-11-21T04:42:06;19.10;48.50
7341;DHT22;6870;50.944;6.932;2023-11-21T04:44:34;19.20;48.50
7341;DHT22;6870;50.944;6.932;2023-11-21T04:47:03;19.00;47.70
7341;DHT22;6870;50.944;6.932;2023-11-21T04:49:31;19.10;49.20
7341;DHT22;6870;50.944;6.932;2023-11-21T04:51:59;19.10;47.90
7341;DHT22;6870;50.944;6.932;2023-11-21T04:54:30;18.80;48.20
7341;DHT22;6870;50.944;6.932;2023-11-21T04:56:59;19.10;48.50
7341;DHT22;6870;50.944;6.932;2023-11-21T04:59:27;19.10;47.90
7341;DHT22;6870;50.944;6.932;2023-11-21T05:01:55;18.90;47.70
7341;DHT22;6870;50.944;6.932;2023-11-21T05:04:24;19.40;48.80
7341;DHT22;6870;50.944;6.932;2023-11-21T05:06:52;19.40;48.10
7341;DHT22;6870;50.944;6.932;2023-11-21T05:09:20;19.00;48.20
7341;DHT22;6870;50.944;6.932;2023-11-21T05:11:49;18.90;48.20
7341;DHT22;6870;50.944;6.932;2023-11-21T05:14:18;19.10;48.40
7341;DHT22;6870;50.944;6.932;2023-11-21T05:16:46;19.10;48.40
7341;DHT22;6870;50.944;6.932;2023-11-21T05:19:14;19.00;49.10
7341;DHT22;6870;50.944;6.932;2023-11-21T05:21:43;19.30;49.90
7341;DHT22;6870;50.944;6.932;2023-11-21T05:24:11;19.10;49.50
7341;DHT22;6870;50.944;6.932;2023-11-21T05:26:39;19.00;49.60
7341;DHT22;6870;50.944;6.932;2023-11-21T05:29:07;19.00;49.90
7341;DHT22;6870;50.944;6.932;2023-11-21T05:31:37;19.20;49.70
7341;DHT22;6870;50.944;6.932;2023-11-21T05:34:05;19.00;49.90
7341;DHT22;6870;50.944;6.932;2023-11-21T05:36:33;19.10;49.60
7341;DHT22;6870;50.944;6.932;2023-11-21T05:39:02;19.10;49.60
7341;DHT22;6870;50.944;6.932;2023-11-21T05:41:31;19.10;50.10
7341;DHT22;6870;50.944;6.932;2023-11-21T05:43:59;19.20;49.70
7341;DHT22;6870;50.944;6.932;2023-11-21T05:46:28;19.10;49.60
7341;DHT22;6870;50.944;6.932;2023-11-21T05:48:58;19.20;50.30
7341;DHT22;6870;50.944;6.932;2023-11-21T05:51:26;19.20;49.90
7341;DHT22;6870;50.944;6.932;2023-11-21T05:53:54;19.10;50.30
7341;DHT22;6870;50.944;6.932;2023-11-21T05:56:21;19.10;49.70
7341;DHT22;6870;50.944;6.932;2023-11-21T05:58:50;19.50;50.80
7341;DHT22;6870;50.944;6.932;2023-11-21T06:01:20;19.40;50.30
7341;DHT22;6870;50.944;6.932;2023-11-21T06:03:48;18.90;49.70
7341;DHT22;6870;50.944;6.932;2023-11-21T06:06:18;19.30;50.50
7341;DHT22;6870;50.944;6.932;2023-11-21T06:08:46;19.40;50.60
7341;DHT22;6870;50.944;6.932;2023-11-21T06:11:14;18.90;50.20
7341;DHT22;6870;50.944;6.932;2023-11-21T06:13:43;18.90;49.80
7341;DHT22;6870;50.944;6.932;2023-11-21T06:16:12;19.10;50.20
7341;DHT22;6870;50.944;6.932;2023-11-21T06:18:43;19.40;50.60
7341;DHT22;6870;50.944;6.932;2023-11-21T06:21:11;18.90;50.10
7341;DHT22;6870;50.944;6.932;2023-11-21T06:23:41;19.40;50.60
7341;DHT22;6870;50.944;6.932;2023-11-21T06:26:09;18.90;50.10
7341;DHT22;6870;50.944;6.932;2023-11-21T06:28:37;19.20;50.50
7341;DHT22;6870;50.944;6.932;2023-11-21T06:31:05;19.20;50.50
7341;DHT22;6870;50.944;6.932;2023-11-21T06:33:34;19.10;50.40
7341;DHT22;6870;50.944;6.932;2023-11-21T06:36:02;19.10;50.10
7341;DHT22;6870;50.944;6.932;2023-11-21T06:38:30;19.00;50.00
7341;DHT22;6870;50.944;6.932;2023-11-21T06:41:00;19.10;50.30
7341;DHT22;6870;50.944;6.932;2023-11-21T06:43:31;18.80;49.50
7341;DHT22;6870;50.944;6.932;2023-11-21T06:45:59;19.00;49.60
7341;DHT22;6870;50.944;6.932;2023-11-21T06:48:27;19.20;50.60
7341;DHT22;6870;50.944;6.932;2023-11-21T06:50:57;19.00;50.10
7341;DHT22;6870;50.944;6.932;2023-11-21T06:53:25;19.40;50.60
7341;DHT22;6870;50.944;6.932;2023-11-21T06:55:53;18.80;49.60
7341;DHT22;6870;50.944;6.932;2023-11-21T06:58:22;19.20;49.80
7341;DHT22;6870;50.944;6.932;2023-11-21T07:00:51;19.20;50.40
7341;DHT22;6870;50.944;6.932;2023-11-21T07:03:22;19.00;50.20
7341;DHT22;6870;50.944;6.932;2023-11-21T07:05:50;19.00;49.40
7341;DHT22;6870;50.944;6.932;2023-11-21T07:08:18;19.10;50.10
7341;DHT22;6870;50.944;6.932;2023-11-21T07:10:47;19.00;50.10
7341;DHT22;6870;50.944;6.932;2023-11-21T07:13:15;19.00;50.00
7341;DHT22;6870;50.944;6.932;2023-11-21T07:15:45;18.90;49.90
7341;DHT22;6870;50.944;6.932;2023-11-21T07:18:13;19.00;49.90
7341;DHT22;6870;50.944;6.932;2023-11-21T07:20:41;19.20;50.50
7341;DHT22;6870;50.944;6.932;2023-11-21T07:23:09;19.10;49.20
7341;DHT22;6870;50.944;6.932;2023-11-21T07:25:37;18.80;49.10
7341;DHT22;6870;50.944;6.932;2023-11-21T07:28:05;19.20;50.00
7341;DHT22;6870;50.944;6.932;2023-11-21T07:30:33;19.00;49.50
7341;DHT22;6870;50.944;6.932;2023-11-21T07:33:02;19.00;50.60
7341;DHT22;6870;50.944;6.932;2023-11-21T07:35:30;19.20;49.70
7341;DHT22;6870;50.944;6.932;2023-11-21T07:37:58;19.10;49.90
7341;DHT22;6870;50.944;6.932;2023-11-21T07:40:26;19.40;49.40
7341;DHT22;6870;50.944;6.932;2023-11-21T07:42:57;19.30;49.60
7341;DHT22;6870;50.944;6.932;2023-11-21T07:45:26;18.90;49.50
7341;DHT22;6870;50.944;6.932;2023-11-21T07:47:55;19.00;49.20
7341;DHT22;6870;50.944;6.932;2023-11-21T07:50:24;19.00;49.60
7341;DHT22;6870;50.944;6.932;2023-11-21T07:52:53;19.30;49.80
7341;DHT22;6870;50.944;6.932;2023-11-21T07:55:27;19.00;49.30
7341;DHT22;6870;50.944;6.932;2023-11-21T07:57:58;19.10;49.20
7341;DHT22;6870;50.944;6.932;2023-11-21T08:00:26;19.20;49.60
7341;DHT22;6870;50.944;6.932;2023-11-21T08:02:56;19.00;49.40
7341;DHT22;6870;50.944;6.932;2023-11-21T08:05:26;19.00;48.80
7341;DHT22;6870;50.944;6.932;2023-11-21T08:08:03;18.90;49.40
7341;DHT22;6870;50.944;6.932;2023-11-21T08:10:31;19.20;49.70
7341;DHT22;6870;50.944;6.932;2023-11-21T08:13:05;18.90;49.00
7341;DHT22;6870;50.944;6.932;2023-11-21T08:15:35;18.90;49.00
7341;DHT22;6870;50.944;6.932;2023-11-21T08:18:04;19.40;49.80
7341;DHT22;6870;50.944;6.932;2023-11-21T08:20:35;19.50;49.80
7341;DHT22;6870;50.944;6.932;2023-11-21T08:23:06;19.30;49.30
7341;DHT22;6870;50.944;6.932;2023-11-21T08:25:34;18.90;49.10
7341;DHT22;6870;50.944;6.932;2023-11-21T08:28:02;19.30;49.50
7341;DHT22;6870;50.944;6.932;2023-11-21T08:30:32;19.00;49.10
7341;DHT22;6870;50.944;6.932;2023-11-21T08:33:01;19.50;49.00
7341;DHT22;6870;50.944;6.932;2023-11-21T08:35:31;19.10;49.00
7341;DHT22;6870;50.944;6.932;2023-11-21T08:38:00;18.90;48.40
7341;DHT22;6870;50.944;6.932;2023-11-21T08:40:29;19.20;49.30
7341;DHT22;6870;50.944;6.932;2023-11-21T08:42:57;19.50;49.50
7341;DHT22;6870;50.944;6.932;2023-11-21T08:45:26;19.40;49.00
7341;DHT22;6870;50.944;6.932;2023-11-21T08:47:54;19.20;49.20
7341;DHT22;6870;50.944;6.932;2023-11-21T08:50:22;19.50;48.90
7341;DHT22;6870;50.944;6.932;2023-11-21T08:52:50;19.20;48.80
7341;DHT22;6870;50.944;6.932;2023-11-21T08:55:20;19.10;49.10
7341;DHT22;6870;50.944;6.932;2023-11-21T08:57:48;19.40;49.10
7341;DHT22;6870;50.944;6.932;2023-11-21T09:00:20;19.30;49.30
7341;DHT22;6870;50.944;6.932;2023-11-21T09:02:48;19.20;49.20
7341;DHT22;6870;50.944;6.932;2023-11-21T09:05:16;19.20;48.40
7341;DHT22;6870;50.944;6.932;2023-11-21T09:07:45;19.30;49.30
7341;DHT22;6870;50.944;6.932;2023-11-21T09:10:15;19.40;48.90
7341;DHT22;6870;50.944;6.932;2023-11-21T09:12:45;19.30;49.20
7341;DHT22;6870;50.944;6.932;2023-11-21T09:15:13;19.30;49.20
7341;DHT22;6870;50.944;6.932;2023-11-21T09:17:41;19.10;49.00
7341;DHT22;6870;50.944;6.932;2023-11-21T09:20:11;19.50;48.60
7341;DHT22;6870;50.944;6.932;2023-11-21T09:22:41;19.30;49.10
7341;DHT22;6870;50.944;6.932;2023-11-21T09:25:11;19.40;49.10
7341;DHT22;6870;50.944;6.932;2023-11-21T09:27:40;19.50;49.10
7341;DHT22;6870;50.944;6.932;2023-11-21T09:30:10;19.30;48.90
7341;DHT22;6870;50.944;6.932;2023-11-21T09:32:40;19.50;49.10
7341;DHT22;6870;50.944;6.932;2023-11-21T09:35:12;19.50;49.00
7341;DHT22;6870;50.944;6.932;2023-11-21T09:37:41;19.30;49.80
7341;DHT22;6870;50.944;6.932;2023-11-21T09:40:11;19.30;48.90
7341;DHT22;6870;50.944;6.932;2023-11-21T09:42:46;19.70;49.50
7341;DHT22;6870;50.944;6.932;2023-11-21T09:45:23;19.60;49.40
7341;DHT22;6870;50.944;6.932;2023-11-21T09:47:54;19.60;49.50
7341;DHT22;6870;50.944;6.932;2023-11-21T09:50:24;19.50;49.30
7341;DHT22;6870;50.944;6.932;2023-11-21T09:53:09;19.50;49.20
7341;DHT22;6870;50.944;6.932;2023-11-21T09:55:43;19.30;49.00
7341;DHT22;6870;50.944;6.932;2023-11-21T09:58:12;19.30;48.20
7341;DHT22;6870;50.944;6.932;2023-11-21T10:00:43;19.30;49.00
7341;DHT22;6870;50.944;6.932;2023-11-21T10:03:12;19.50;49.20
7341;DHT22;6870;50.944;6.932;2023-11-21T10:05:42;19.50;49.20
7341;DHT22;6870;50.944;6.932;2023-11-21T10:08:13;19.40;49.00
7341;DHT22;6870;50.944;6.932;2023-11-21T10:10:43;19.40;48.90
7341;DHT22;6870;50.944;6.932;2023-11-21T10:13:13;19.50;49.00
7341;DHT22;6870;50.944;6.932;2023-11-21T10:15:49;19.70;48.90
7341;DHT22;6870;50.944;6.932;2023-11-21T10:18:18;19.60;47.90
7341;DHT22;6870;50.944;6.932;2023-11-21T10:20:49;19.50;48.40
7341;DHT22;6870;50.944;6.932;2023-11-21T10:23:21;19.60;48.50
7341;DHT22;6870;50.944;6.932;2023-11-21T10:25:51;19.50;48.40
7341;DHT22;6870;50.944;6.932;2023-11-21T10:28:20;19.60;48.40
7341;DHT22;6870;50.944;6.932;2023-11-21T10:30:50;19.60;48.30
7341;DHT22;6870;50.944;6.932;2023-11-21T10:33:27;19.70;48.30
7341;DHT22;6870;50.944;6.932;2023-11-21T10:35:56;19.40;48.00
7341;DHT22;6870;50.944;6.932;2023-11-21T10:38:24;19.70;48.20
7341;DHT22;6870;50.944;6.932;2023-11-21T10:40:54;19.60;48.00
7341;DHT22;6870;50.944;6.932;2023-11-21T10:43:25;19.50;47.90
7341;DHT22;6870;50.944;6.932;2023-11-21T10:45:57;19.60;47.80
7341;DHT22;6870;50.944;6.932;2023-11-21T10:48:27;19.70;47.90
7341;DHT22;6870;50.944;6.932;2023-11-21T10:50:55;19.70;47.80
7341;DHT22;6870;50.944;6.932;2023-11-21T10:53:24;19.70;47.10
7341;DHT22;6870;50.944;6.932;2023-11-21T10:56:02;19.70;47.80
7341;DHT22;6870;50.944;6.932;2023-11-21T10:58:31;19.40;48.40
7341;DHT22;6870;50.944;6.932;2023-11-21T11:01:07;19.80;48.00
7341;DHT22;6870;50.944;6.932;2023-11-21T11:03:38;19.70;47.80
7341;DHT22;6870;50.944;6.932;2023-11-21T11:06:07;19.80;47.30
7341;DHT22;6870;50.944;6.932;2023-11-21T11:08:40;19.70;47.50
7341;DHT22;6870;50.944;6.932;2023-11-21T11:11:09;19.70;47.50
7341;DHT22;6870;50.944;6.932;2023-11-21T11:13:38;19.70;47.40
7341;DHT22;6870;50.944;6.932;2023-11-21T11:16:09;19.70;47.30
7341;DHT22;6870;50.944;6.932;2023-11-21T11:18:37;19.80;46.80
7341;DHT22;6870;50.944;6.932;2023-11-21T11:21:14;19.40;47.00
7341;DHT22;6870;50.944;6.932;2023-11-21T11:24:02;19.80;47.40
7341;DHT22;6870;50.944;6.932;2023-11-21T11:26:44;19.70;47.20
7341;DHT22;6870;50.944;6.932;2023-11-21T11:29:27;19.40;46.80
7341;DHT22;6870;50.944;6.932;2023-11-21T11:32:12;19.50;46.90
7341;DHT22;6870;50.944;6.932;2023-11-21T11:34:53;19.60;46.90
7341;DHT22;6870;50.944;6.932;2023-11-21T11:37:26;19.80;47.00
7341;DHT22;6870;50.944;6.932;2023-11-21T11:39:55;19.70;46.80
7341;DHT22;6870;50.944;6.932;2023-11-21T11:42:23;19.70;46.80
7341;DHT22;6870;50.944;6.932;2023-11-21T11:44:52;19.70;46.70
7341;DHT22;6870;50.944;6.932;2023-11-21T11:47:25;19.70;46.60
7341;DHT22;6870;50.944;6.932;2023-11-21T11:50:03;19.50;46.40
7341;DHT22;6870;50.944;6.932;2023-11-21T11:52:36;19.60;46.40
7341;DHT22;6870;50.944;6.932;2023-11-21T11:55:08;19.60;45.50
7341;DHT22;6870;50.944;6.932;2023-11-21T11:57:41;19.80;46.60
7341;DHT22;6870;50.944;6.932;2023-11-21T12:00:15;19.80;46.70
7341;DHT22;6870;50.944;6.932;2023-11-21T12:02:48;19.70;46.50
7341;DHT22;6870;50.944;6.932;2023-11-21T12:05:20;19.80;46.50
7341;DHT22;6870;50.944;6.932;2023-11-21T12:07:50;19.70;46.20
7341;DHT22;6870;50.944;6.932;2023-11-21T12:10:22;20.10;46.00
7341;DHT22;6870;50.944;6.932;2023-11-21T12:12:52;19.90;45.70
7341;DHT22;6870;50.944;6.932;2023-11-21T12:15:22;20.00;46.90
7341;DHT22;6870;50.944;6.932;2023-11-21T12:17:53;19.90;46.70
7341;DHT22;6870;50.944;6.932;2023-11-21T12:20:22;19.90;46.00
7341;DHT22;6870;50.944;6.932;2023-11-21T12:22:53;19.70;46.50
7341;DHT22;6870;50.944;6.932;2023-11-21T12:25:29;19.90;46.60
7341;DHT22;6870;50.944;6.932;2023-11-21T12:28:00;20.10;46.40
7341;DHT22;6870;50.944;6.932;2023-11-21T12:30:30;20.30;47.10
7341;DHT22;6870;50.944;6.932;2023-11-21T12:33:02;20.10;46.70
7341;DHT22;6870;50.944;6.932;2023-11-21T12:35:32;20.40;46.90
7341;DHT22;6870;50.944;6.932;2023-11-21T12:38:03;20.20;46.70
7341;DHT22;6870;50.944;6.932;2023-11-21T12:40:32;20.20;44.90
7341;DHT22;6870;50.944;6.932;2023-11-21T12:43:01;20.40;45.70
7341;DHT22;6870;50.944;6.932;2023-11-21T12:45:30;20.30;46.10
7341;DHT22;6870;50.944;6.932;2023-11-21T12:48:01;20.10;46.60
7341;DHT22;6870;50.944;6.932;2023-11-21T12:50:35;20.20;46.80
7341;DHT22;6870;50.944;6.932;2023-11-21T12:53:05;20.20;46.70
7341;DHT22;6870;50.944;6.932;2023-11-21T12:55:35;20.50;46.90
7341;DHT22;6870;50.944;6.932;2023-11-21T12:58:06;20.30;46.20
7341;DHT22;6870;50.944;6.932;2023-11-21T13:00:42;20.50;46.80
7341;DHT22;6870;50.944;6.932;2023-11-21T13:03:14;20.40;46.70
7341;DHT22;6870;50.944;6.932;2023-11-21T13:05:47;20.00;46.30
7341;DHT22;6870;50.944;6.932;2023-11-21T13:08:17;20.10;44.80
7341;DHT22;6870;50.944;6.932;2023-11-21T13:10:50;20.50;46.70
7341;DHT22;6870;50.944;6.932;2023-11-21T13:13:21;20.30;45.20
7341;DHT22;6870;50.944;6.932;2023-11-21T13:15:52;20.60;46.80
7341;DHT22;6870;50.944;6.932;2023-11-21T13:18:24;20.80;47.00
7341;DHT22;6870;50.944;6.932;2023-11-21T13:20:53;20.40;45.10
7341;DHT22;6870;50.944;6.932;2023-11-21T13:23:22;20.60;45.30
7341;DHT22;6870;50.944;6.932;2023-11-21T13:25:50;20.50;46.40
7341;DHT22;6870;50.944;6.932;2023-11-21T13:28:28;20.50;46.50
7341;DHT22;6870;50.944;6.932;2023-11-21T13:31:00;20.60;45.70
7341;DHT22;6870;50.944;6.932;2023-11-21T13:33:39;20.50;45.30
7341;DHT22;6870;50.944;6.932;2023-11-21T13:36:09;20.50;46.40
7341;DHT22;6870;50.944;6.932;2023-11-21T13:38:40;20.70;46.60
7341;DHT22;6870;50.944;6.932;2023-11-21T13:41:10;20.50;46.30
7341;DHT22;6870;50.944;6.932;2023-11-21T13:43:40;20.40;45.20
7341;DHT22;6870;50.944;6.932;2023-11-21T13:46:10;20.40;46.20
7341;DHT22;6870;50.944;6.932;2023-11-21T13:48:45;20.70;46.40
7341;DHT22;6870;50.944;6.932;2023-11-21T13:51:18;20.50;45.50
7341;DHT22;6870;50.944;6.932;2023-11-21T13:53:48;20.50;45.40
7341;DHT22;6870;50.944;6.932;2023-11-21T13:56:19;20.10;45.40
7341;DHT22;6870;50.944;6.932;2023-11-21T13:58:51;20.50;46.30
7341;DHT22;6870;50.944;6.932;2023-11-21T14:01:23;20.40;45.40
7341;DHT22;6870;50.944;6.932;2023-11-21T14:04:16;20.00;46.20
7341;DHT22;6870;50.944;6.932;2023-11-21T14:06:58;20.30;45.20
7341;DHT22;6870;50.944;6.932;2023-11-21T14:09:37;20.30;46.40
7341;DHT22;6870;50.944;6.932;2023-11-21T14:12:11;20.40;45.10
7341;DHT22;6870;50.944;6.932;2023-11-21T14:14:41;20.50;46.70
7341;DHT22;6870;50.944;6.932;2023-11-21T14:17:10;20.30;46.10
7341;DHT22;6870;50.944;6.932;2023-11-21T14:19:40;20.50;46.20
7341;DHT22;6870;50.944;6.932;2023-11-21T14:22:11;20.60;45.40
7341;DHT22;6870;50.944;6.932;2023-11-21T14:24:39;20.40;46.10
7341;DHT22;6870;50.944;6.932;2023-11-21T14:27:10;20.40;46.50
7341;DHT22;6870;50.944;6.932;2023-11-21T14:29:38;20.60;45.90
7341;DHT22;6870;50.944;6.932;2023-11-21T14:32:10;20.70;47.00
7341;DHT22;6870;50.944;6.932;2023-11-21T14:34:40;20.40;45.10
7341;DHT22;6870;50.944;6.932;2023-11-21T14:37:09;20.70;47.00
7341;DHT22;6870;50.944;6.932;2023-11-21T14:39:40;20.50;45.80
7341;DHT22;6870;50.944;6.932;2023-11-21T14:42:11;20.50;45.20
7341;DHT22;6870;50.944;6.932;2023-11-21T14:44:41;20.60;45.60
7341;DHT22;6870;50.944;6.932;2023-11-21T14:47:09;20.20;45.60
7341;DHT22;6870;50.944;6.932;2023-11-21T14:49:43;20.50;46.70
7341;DHT22;6870;50.944;6.932;2023-11-21T14:52:21;20.60;47.10
7341;DHT22;6870;50.944;6.932;2023-11-21T14:55:03;20.30;46.40
7341;DHT22;6870;50.944;6.932;2023-11-21T14:57:52;20.30;46.90
7341;DHT22;6870;50.944;6.932;2023-11-21T15:00:20;20.20;46.70
7341;DHT22;6870;50.944;6.932;2023-11-21T15:03:12;20.70;47.70
7341;DHT22;6870;50.944;6.932;2023-11-21T15:06:00;20.70;46.30
7341;DHT22;6870;50.944;6.932;2023-11-21T15:08:48;20.30;47.00
7341;DHT22;6870;50.944;6.932;2023-11-21T15:11:22;20.30;47.70
7341;DHT22;6870;50.944;6.932;2023-11-21T15:13:57;20.40;47.10
7341;DHT22;6870;50.944;6.932;2023-11-21T15:16:25;20.60;47.30
7341;DHT22;6870;50.944;6.932;2023-11-21T15:18:53;20.50;46.20
7341;DHT22;6870;50.944;6.932;2023-11-21T15:21:23;20.30;46.90
7341;DHT22;6870;50.944;6.932;2023-11-21T15:23:51;20.30;46.30
7341;DHT22;6870;50.944;6.932;2023-11-21T15:26:20;20.40;46.00
7341;DHT22;6870;50.944;6.932;2023-11-21T15:28:49;20.40;45.70
7341;DHT22;6870;50.944;6.932;2023-11-21T15:31:17;20.40;46.90
7341;DHT22;6870;50.944;6.932;2023-11-21T15:33:50;20.70;47.30
7341;DHT22;6870;50.944;6.932;2023-11-21T15:36:19;20.60;47.20
7341;DHT22;6870;50.944;6.932;2023-11-21T15:38:49;20.40;47.00
7341;DHT22;6870;50.944;6.932;2023-11-21T15:41:17;20.50;45.80
7341;DHT22;6870;50.944;6.932;2023-11-21T15:43:51;20.40;45.70
7341;DHT22;6870;50.944;6.932;2023-11-21T15:46:19;20.60;47.10
7341;DHT22;6870;50.944;6.932;2023-11-21T15:48:47;20.40;46.80
7341;DHT22;6870;50.944;6.932;2023-11-21T15:51:20;20.70;47.10
7341;DHT22;6870;50.944;6.932;2023-11-21T15:53:50;20.20;45.80
7341;DHT22;6870;50.944;6.932;2023-11-21T15:56:18;20.30;45.50
7341;DHT22;6870;50.944;6.932;2023-11-21T15:58:47;20.50;47.00
7341;DHT22;6870;50.944;6.932;2023-11-21T16:01:17;20.50;47.10
7341;DHT22;6870;50.944;6.932;2023-11-21T16:03:46;20.20;46.80
7341;DHT22;6870;50.944;6.932;2023-11-21T16:06:15;20.60;46.30
7341;DHT22;6870;50.944;6.932;2023-11-21T16:08:44;20.60;47.10
7341;DHT22;6870;50.944;6.932;2023-11-21T16:11:14;20.60;47.10
7341;DHT22;6870;50.944;6.932;2023-11-21T16:13:45;20.30;45.90
7341;DHT22;6870;50.944;6.932;2023-11-21T16:16:20;20.60;47.10
7341;DHT22;6870;50.944;6.932;2023-11-21T16:18:49;20.60;47.20
7341;DHT22;6870;50.944;6.932;2023-11-21T16:21:18;20.40;46.50